createdAt,value
2017-08-10T00:02:19.084Z,22.10
2017-08-10T00:04:46.640Z,22.10
2017-08-10T00:07:14.181Z,22.10
2017-08-10T00:09:42.500Z,22.10
2017-08-10T00:12:10.033Z,22.00
2017-08-10T00:14:37.551Z,22.00
2017-08-10T00:17:05.119Z,22.00
2017-08-10T00:19:32.625Z,21.90
2017-08-10T00:22:00.183Z,22.00
2017-08-10T00:24:27.694Z,22.10
2017-08-10T00:26:55.238Z,22.00
2017-08-10T00:29:22.786Z,22.00
2017-08-10T00:31:50.378Z,22.00
2017-08-10T00:34:17.985Z,22.10
2017-08-10T00:39:19.509Z,22.10
2017-08-10T00:41:47.139Z,22.10
2017-08-10T00:44:14.707Z,22.20
2017-08-10T00:46:42.259Z,22.20
2017-08-10T00:49:09.824Z,22.20
2017-08-10T00:51:37.370Z,22.10
2017-08-10T00:54:04.906Z,21.90
2017-08-10T00:56:32.454Z,21.90
2017-08-10T00:59:00.805Z,21.80
2017-08-10T01:01:28.355Z,21.80
2017-08-10T01:03:55.882Z,21.70
2017-08-10T01:06:23.414Z,21.70
2017-08-10T01:08:51.726Z,21.70
2017-08-10T01:11:19.263Z,21.70
2017-08-10T01:13:46.775Z,21.80
2017-08-10T01:16:14.319Z,21.70
2017-08-10T01:18:41.851Z,21.50
2017-08-10T01:21:09.371Z,21.50
2017-08-10T01:23:36.988Z,21.50
2017-08-10T01:26:04.526Z,21.50
2017-08-10T01:28:32.052Z,21.50
2017-08-10T01:30:59.618Z,21.50
2017-08-10T01:33:27.908Z,21.40
2017-08-10T01:35:55.492Z,21.40
2017-08-10T01:38:23.014Z,21.40
2017-08-10T01:40:50.574Z,21.30
2017-08-10T01:43:18.124Z,21.40
2017-08-10T01:45:45.666Z,21.40
2017-08-10T01:48:13.196Z,21.40
2017-08-10T01:50:40.737Z,21.40
2017-08-10T01:53:08.256Z,21.40
2017-08-10T01:55:36.587Z,21.30
2017-08-10T01:58:04.101Z,21.30
2017-08-10T02:00:32.446Z,21.30
2017-08-10T02:02:59.944Z,21.30
2017-08-10T02:05:27.485Z,21.40
2017-08-10T02:07:55.067Z,21.30
2017-08-10T02:10:23.357Z,21.50
2017-08-10T02:12:50.912Z,21.40
2017-08-10T02:15:19.232Z,21.30
2017-08-10T02:17:46.793Z,21.30
2017-08-10T02:20:14.338Z,21.30
2017-08-10T02:22:41.858Z,21.30
2017-08-10T02:25:10.186Z,21.10
2017-08-10T02:27:37.744Z,21.10
2017-08-10T02:30:05.725Z,21.40
2017-08-10T02:32:33.288Z,21.30
2017-08-10T02:35:00.829Z,21.20
2017-08-10T02:37:28.395Z,21.20
2017-08-10T02:39:55.927Z,21.40
2017-08-10T02:42:23.470Z,21.40
2017-08-10T02:44:51.752Z,21.50
2017-08-10T02:47:20.070Z,21.60
2017-08-10T02:49:47.688Z,21.50
2017-08-10T02:52:15.989Z,21.40
2017-08-10T02:54:43.511Z,21.40
2017-08-10T02:57:11.040Z,21.50
2017-08-10T02:59:38.554Z,21.50
2017-08-10T03:02:06.102Z,21.50
2017-08-10T03:04:34.399Z,21.70
2017-08-10T03:07:02.039Z,21.70
2017-08-10T03:09:29.563Z,21.50
2017-08-10T03:11:57.248Z,21.20
2017-08-10T03:14:24.794Z,21.00
2017-08-10T03:16:52.370Z,21.00
2017-08-10T03:19:19.865Z,21.10
2017-08-10T03:21:47.462Z,21.20
2017-08-10T03:24:15.012Z,21.30
2017-08-10T03:26:42.567Z,21.30
2017-08-10T03:29:10.088Z,21.30
2017-08-10T03:31:37.656Z,21.20
2017-08-10T03:34:05.207Z,21.30
2017-08-10T03:36:33.519Z,21.00
2017-08-10T03:39:01.026Z,21.00
2017-08-10T03:41:28.567Z,21.20
2017-08-10T03:43:56.067Z,21.40
2017-08-10T03:46:24.423Z,21.70
2017-08-10T03:48:51.968Z,21.60
2017-08-10T03:51:19.512Z,21.80
2017-08-10T03:53:47.060Z,21.70
2017-08-10T03:56:14.610Z,21.70
2017-08-10T03:58:42.134Z,21.70
2017-08-10T04:01:10.460Z,21.90
2017-08-10T04:03:37.958Z,21.90
2017-08-10T04:06:05.451Z,21.80
2017-08-10T04:08:33.011Z,21.90
2017-08-10T04:11:00.528Z,22.00
2017-08-10T04:13:28.063Z,22.00
2017-08-10T04:15:55.613Z,22.00
2017-08-10T04:18:23.171Z,22.00
2017-08-10T04:20:50.691Z,22.00
2017-08-10T04:23:18.316Z,21.90
2017-08-10T04:25:45.843Z,22.00
2017-08-10T04:28:13.370Z,22.00
2017-08-10T04:30:41.682Z,22.00
2017-08-10T04:33:09.293Z,22.00
2017-08-10T04:35:37.592Z,21.80
2017-08-10T04:38:05.884Z,21.80
2017-08-10T04:40:33.472Z,21.80
2017-08-10T04:43:01.030Z,21.90
2017-08-10T04:45:28.571Z,21.70
2017-08-10T04:47:56.126Z,21.40
2017-08-10T04:50:23.653Z,21.50
2017-08-10T04:52:51.214Z,21.70
2017-08-10T04:55:18.774Z,21.80
2017-08-10T04:57:46.336Z,21.90
2017-08-10T05:00:13.871Z,22.00
2017-08-10T05:02:41.451Z,22.00
2017-08-10T05:05:08.958Z,22.00
2017-08-10T05:07:36.526Z,22.00
2017-08-10T05:10:04.045Z,22.00
2017-08-10T05:12:32.358Z,22.00
2017-08-10T05:14:59.914Z,22.00
2017-08-10T05:17:27.515Z,22.10
2017-08-10T05:19:55.046Z,22.20
2017-08-10T05:22:22.606Z,22.30
2017-08-10T05:24:50.258Z,22.40
2017-08-10T05:27:17.782Z,22.40
2017-08-10T05:29:46.073Z,22.50
2017-08-10T05:32:14.393Z,22.50
2017-08-10T05:34:42.089Z,22.50
2017-08-10T05:37:10.622Z,22.30
2017-08-10T05:39:39.003Z,22.30
2017-08-10T05:42:07.203Z,22.40
2017-08-10T05:44:36.525Z,22.60
2017-08-10T05:47:05.995Z,22.80
2017-08-10T05:49:33.549Z,22.80
2017-08-10T05:52:01.126Z,22.90
2017-08-10T05:54:28.647Z,22.90
2017-08-10T05:56:56.201Z,23.20
2017-08-10T05:59:23.746Z,23.30
2017-08-10T06:01:52.091Z,23.60
2017-08-10T06:04:19.614Z,23.50
2017-08-10T06:06:47.170Z,23.40
2017-08-10T06:09:14.718Z,23.50
2017-08-10T06:11:42.290Z,23.60
2017-08-10T06:14:09.818Z,23.70
2017-08-10T06:16:38.094Z,23.70
2017-08-10T06:19:06.427Z,23.70
2017-08-10T06:21:33.948Z,23.70
2017-08-10T06:24:01.523Z,23.80
2017-08-10T06:26:29.038Z,23.80
2017-08-10T06:28:56.567Z,23.90
2017-08-10T06:31:24.085Z,23.80
2017-08-10T06:33:51.626Z,23.90
2017-08-10T06:36:19.130Z,23.90
2017-08-10T06:38:46.706Z,23.80
2017-08-10T06:41:14.338Z,23.50
2017-08-10T06:43:41.867Z,23.60
2017-08-10T06:46:09.403Z,23.70
2017-08-10T06:48:37.020Z,24.00
2017-08-10T06:51:04.555Z,24.10
2017-08-10T06:53:32.875Z,24.30
2017-08-10T06:56:00.402Z,24.30
2017-08-10T06:58:27.965Z,24.40
2017-08-10T07:00:55.490Z,24.40
2017-08-10T07:03:23.064Z,24.50
2017-08-10T07:05:50.638Z,24.60
2017-08-10T07:08:18.928Z,24.90
2017-08-10T07:10:46.463Z,24.80
2017-08-10T07:13:14.801Z,24.50
2017-08-10T07:15:42.304Z,24.50
2017-08-10T07:18:10.611Z,24.70
2017-08-10T07:20:38.143Z,24.70
2017-08-10T07:23:06.506Z,24.90
2017-08-10T07:25:34.024Z,24.90
2017-08-10T07:28:01.550Z,24.90
2017-08-10T07:30:29.823Z,25.00
2017-08-10T07:32:57.408Z,25.00
2017-08-10T07:35:24.914Z,25.10
2017-08-10T07:37:52.485Z,25.00
2017-08-10T07:40:19.998Z,25.00
2017-08-10T07:42:47.560Z,25.00
2017-08-10T07:45:15.109Z,25.30
2017-08-10T07:47:42.651Z,25.50
2017-08-10T07:50:10.199Z,25.80
2017-08-10T07:52:38.517Z,25.90
2017-08-10T07:55:06.056Z,25.90
2017-08-10T07:57:33.584Z,26.00
2017-08-10T08:00:01.106Z,25.90
2017-08-10T08:02:28.635Z,25.90
2017-08-10T08:04:56.185Z,26.00
2017-08-10T08:07:23.735Z,26.10
2017-08-10T08:09:51.295Z,26.00
2017-08-10T08:12:19.614Z,26.10
2017-08-10T08:14:47.151Z,26.10
2017-08-10T08:17:14.661Z,26.10
2017-08-10T08:19:42.203Z,25.50
2017-08-10T08:22:09.710Z,25.60
2017-08-10T08:24:37.297Z,25.20
2017-08-10T08:27:04.854Z,24.80
2017-08-10T08:29:32.379Z,24.90
2017-08-10T08:32:00.669Z,24.90
2017-08-10T08:34:29.002Z,24.80
2017-08-10T08:36:56.538Z,24.80
2017-08-10T08:39:24.079Z,25.00
2017-08-10T08:41:51.626Z,25.20
2017-08-10T08:44:19.168Z,25.30
2017-08-10T08:46:46.726Z,25.60
2017-08-10T08:49:14.303Z,25.90
2017-08-10T08:51:41.871Z,26.00
2017-08-10T08:54:09.483Z,26.00
2017-08-10T08:56:37.027Z,26.10
2017-08-10T08:59:04.574Z,26.00
2017-08-10T09:01:32.096Z,26.10
2017-08-10T09:03:59.650Z,26.30
2017-08-10T09:06:28.864Z,26.50
2017-08-10T09:08:56.411Z,26.40
2017-08-10T09:11:23.918Z,26.40
2017-08-10T09:13:51.469Z,26.20
2017-08-10T09:16:18.994Z,26.10
2017-08-10T09:18:47.304Z,26.10
2017-08-10T09:21:14.823Z,26.10
2017-08-10T09:23:43.396Z,25.70
2017-08-10T09:26:13.870Z,25.60
2017-08-10T09:28:48.206Z,25.90
2017-08-10T09:31:16.941Z,26.00
2017-08-10T09:33:45.874Z,26.00
2017-08-10T09:36:13.423Z,26.10
2017-08-10T09:38:40.954Z,26.20
2017-08-10T09:41:08.512Z,26.30
2017-08-10T09:43:36.075Z,26.50
2017-08-10T09:46:05.658Z,26.60
2017-08-10T09:48:34.098Z,26.70
2017-08-10T09:51:06.858Z,26.80
2017-08-10T09:53:37.997Z,26.70
2017-08-10T09:56:05.494Z,26.70
2017-08-10T09:58:33.046Z,26.90
2017-08-10T10:01:00.575Z,27.10
2017-08-10T10:03:28.089Z,27.60
2017-08-10T10:05:55.629Z,27.80
2017-08-10T10:08:23.220Z,28.20
2017-08-10T10:10:50.718Z,28.30
2017-08-10T10:13:18.255Z,28.10
2017-08-10T10:15:45.762Z,27.90
2017-08-10T10:18:13.305Z,27.80
2017-08-10T10:20:40.839Z,27.70
2017-08-10T10:23:08.397Z,27.70
2017-08-10T10:25:35.899Z,27.60
2017-08-10T10:28:03.412Z,27.60
2017-08-10T10:30:30.930Z,27.70
2017-08-10T10:32:58.497Z,27.90
2017-08-10T10:35:26.034Z,28.20
2017-08-10T10:37:53.588Z,28.30
2017-08-10T10:40:21.878Z,28.20
2017-08-10T10:42:49.396Z,28.20
2017-08-10T10:45:17.730Z,27.50
2017-08-10T10:47:45.247Z,27.50
2017-08-10T10:50:12.816Z,26.90
2017-08-10T10:52:40.336Z,26.60
2017-08-10T10:55:07.862Z,26.60
2017-08-10T10:57:35.379Z,26.50
2017-08-10T11:00:03.703Z,26.50
2017-08-10T11:02:31.225Z,26.40
2017-08-10T11:04:58.770Z,26.40
2017-08-10T11:07:26.281Z,26.30
2017-08-10T11:09:53.853Z,26.30
2017-08-10T11:12:21.607Z,26.30
2017-08-10T11:14:52.623Z,26.20
2017-08-10T11:17:20.527Z,26.30
2017-08-10T11:19:48.903Z,26.50
2017-08-10T11:22:16.444Z,26.50
2017-08-10T11:24:48.317Z,26.30
2017-08-10T11:27:16.489Z,26.40
2017-08-10T11:29:45.576Z,26.30
2017-08-10T11:32:14.337Z,26.20
2017-08-10T11:34:41.882Z,26.00
2017-08-10T11:37:09.430Z,26.00
2017-08-10T11:39:36.963Z,25.90
2017-08-10T11:42:04.494Z,25.90
2017-08-10T11:44:32.159Z,26.00
2017-08-10T11:47:00.482Z,25.80
2017-08-10T11:49:28.028Z,25.80
2017-08-10T11:51:55.593Z,25.70
2017-08-10T11:54:23.114Z,25.50
2017-08-10T11:56:50.630Z,25.60
2017-08-10T11:59:18.191Z,25.70
2017-08-10T12:01:45.703Z,25.50
2017-08-10T12:04:13.254Z,25.10
2017-08-10T12:06:40.855Z,25.10
2017-08-10T12:09:08.497Z,25.20
2017-08-10T12:11:36.029Z,25.20
2017-08-10T12:14:03.622Z,25.30
2017-08-10T12:16:31.239Z,25.30
2017-08-10T12:18:59.559Z,24.90
2017-08-10T12:21:27.092Z,24.90
2017-08-10T12:23:54.701Z,24.90
2017-08-10T12:26:22.210Z,25.00
2017-08-10T12:28:50.528Z,24.90
2017-08-10T12:31:18.059Z,24.90
2017-08-10T12:33:45.634Z,25.00
2017-08-10T12:36:13.159Z,24.90
2017-08-10T12:38:41.479Z,24.70
2017-08-10T12:41:09.011Z,24.60
2017-08-10T12:43:36.564Z,24.30
2017-08-10T12:46:04.108Z,24.50
2017-08-10T12:48:32.443Z,24.60
2017-08-10T12:51:00.010Z,24.60
2017-08-10T12:53:27.540Z,24.40
2017-08-10T12:55:55.204Z,24.40
2017-08-10T12:58:26.394Z,24.50
2017-08-10T13:00:53.937Z,24.40
2017-08-10T13:03:21.465Z,24.50
2017-08-10T13:05:49.004Z,24.50
2017-08-10T13:08:16.526Z,24.70
2017-08-10T13:10:44.095Z,24.80
2017-08-10T13:13:11.675Z,24.60
2017-08-10T13:15:40.014Z,23.90
2017-08-10T13:18:07.534Z,23.90
2017-08-10T13:20:35.117Z,23.80
2017-08-10T13:23:02.683Z,24.10
2017-08-10T13:25:30.222Z,24.00
2017-08-10T13:27:57.772Z,24.10
2017-08-10T13:30:25.311Z,24.10
2017-08-10T13:32:53.575Z,24.10
2017-08-10T13:35:21.105Z,24.10
2017-08-10T13:37:48.662Z,24.30
2017-08-10T13:40:16.210Z,24.20
2017-08-10T13:42:43.740Z,24.20
2017-08-10T13:45:13.373Z,24.40
2017-08-10T13:47:41.044Z,24.40
2017-08-10T13:50:08.808Z,24.50
2017-08-10T13:52:38.905Z,24.50
2017-08-10T13:55:06.658Z,24.50
2017-08-10T13:57:34.191Z,24.30
2017-08-10T14:00:01.736Z,24.20
2017-08-10T14:02:29.268Z,24.10
2017-08-10T14:04:56.823Z,23.30
2017-08-10T14:07:24.337Z,23.40
2017-08-10T14:09:51.952Z,23.40
2017-08-10T14:12:19.528Z,23.70
2017-08-10T14:14:47.046Z,23.50
2017-08-10T14:17:14.574Z,23.60
2017-08-10T14:19:42.099Z,23.90
2017-08-10T14:22:09.651Z,24.10
2017-08-10T14:24:37.173Z,24.30
2017-08-10T14:27:05.505Z,24.30
2017-08-10T14:29:33.056Z,24.30
2017-08-10T14:32:00.580Z,24.20
2017-08-10T14:34:28.132Z,24.10
2017-08-10T14:36:55.690Z,24.20
2017-08-10T14:39:23.989Z,24.10
2017-08-10T14:41:51.556Z,24.10
2017-08-10T14:44:19.087Z,24.00
2017-08-10T14:46:47.421Z,23.80
2017-08-10T14:49:14.966Z,23.80
2017-08-10T14:51:42.510Z,23.20
2017-08-10T14:54:10.052Z,23.50
2017-08-10T14:56:37.606Z,23.60
2017-08-10T14:59:05.123Z,23.60
2017-08-10T15:01:32.688Z,23.60
2017-08-10T15:04:00.252Z,23.70
2017-08-10T15:06:27.787Z,23.90
2017-08-10T15:08:55.307Z,23.90
2017-08-10T15:11:22.901Z,23.80
2017-08-10T15:13:50.430Z,23.90
2017-08-10T15:16:18.747Z,23.90
2017-08-10T15:18:46.279Z,23.90
2017-08-10T15:21:13.827Z,24.00
2017-08-10T15:23:41.387Z,24.10
2017-08-10T15:26:08.918Z,24.10
2017-08-10T15:28:37.228Z,24.10
2017-08-10T15:31:04.754Z,24.00
2017-08-10T15:33:33.078Z,23.90
2017-08-10T15:36:00.655Z,23.90
2017-08-10T15:38:29.796Z,24.00
2017-08-10T15:40:58.120Z,24.00
2017-08-10T15:43:26.225Z,24.00
2017-08-10T15:45:54.942Z,23.50
2017-08-10T15:48:22.505Z,23.20
2017-08-10T15:50:51.123Z,23.20
2017-08-10T15:53:21.040Z,23.20
2017-08-10T15:55:50.200Z,23.30
2017-08-10T15:58:28.961Z,23.30
2017-08-10T16:00:57.239Z,23.20
2017-08-10T16:03:25.478Z,23.10
2017-08-10T16:05:53.800Z,22.90
2017-08-10T16:08:21.400Z,22.80
2017-08-10T16:10:48.943Z,22.90
2017-08-10T16:13:16.538Z,22.70
2017-08-10T16:15:44.107Z,22.90
2017-08-10T16:18:11.661Z,23.00
2017-08-10T16:20:39.230Z,23.20
2017-08-10T16:23:06.805Z,22.80
2017-08-10T16:25:34.341Z,22.70
2017-08-10T16:28:01.895Z,22.80
2017-08-10T16:30:30.191Z,22.80
2017-08-10T16:32:57.754Z,22.80
2017-08-10T16:35:25.309Z,22.80
2017-08-10T16:37:52.909Z,22.50
2017-08-10T16:40:20.439Z,22.20
2017-08-10T16:42:48.000Z,22.30
2017-08-10T16:45:15.564Z,22.40
2017-08-10T16:47:43.127Z,22.60
2017-08-10T16:50:10.654Z,22.60
2017-08-10T16:52:38.227Z,22.30
2017-08-10T16:55:05.753Z,22.30
2017-08-10T16:57:33.354Z,22.20
2017-08-10T17:00:00.862Z,22.50
2017-08-10T17:02:28.499Z,22.70
2017-08-10T17:04:56.028Z,22.90
2017-08-10T17:07:23.556Z,22.80
2017-08-10T17:09:51.086Z,22.90
2017-08-10T17:12:18.700Z,22.90
2017-08-10T17:14:47.052Z,22.50
2017-08-10T17:17:14.582Z,22.40
2017-08-10T17:19:42.110Z,22.60
2017-08-10T17:22:09.647Z,22.80
2017-08-10T17:24:37.921Z,22.60
2017-08-10T17:27:06.258Z,22.60
2017-08-10T17:29:33.801Z,22.60
2017-08-10T17:32:01.355Z,22.20
2017-08-10T17:34:28.922Z,22.30
2017-08-10T17:36:56.481Z,22.40
2017-08-10T17:39:24.014Z,22.60
2017-08-10T17:41:52.386Z,22.40
2017-08-10T17:44:20.666Z,22.40
2017-08-10T17:46:48.966Z,22.40
2017-08-10T17:49:16.539Z,22.40
2017-08-10T17:51:44.064Z,22.20
2017-08-10T17:54:12.390Z,22.00
2017-08-10T17:56:39.906Z,22.00
2017-08-10T17:59:08.231Z,22.20
2017-08-10T18:01:35.749Z,22.10
2017-08-10T18:04:04.075Z,22.10
2017-08-10T18:06:31.622Z,22.10
2017-08-10T18:08:59.149Z,22.30
2017-08-10T18:11:26.711Z,22.20
2017-08-10T18:13:54.248Z,22.10
2017-08-10T18:16:22.518Z,21.70
2017-08-10T18:18:50.079Z,21.70
2017-08-10T18:21:17.615Z,22.00
2017-08-10T18:23:45.162Z,22.40
2017-08-10T18:26:12.711Z,22.40
2017-08-10T18:28:40.284Z,22.40
2017-08-10T18:31:07.828Z,22.40
2017-08-10T18:33:35.418Z,22.40
2017-08-10T18:36:02.933Z,22.40
2017-08-10T18:38:30.482Z,22.40
2017-08-10T18:40:58.781Z,22.40
2017-08-10T18:43:26.328Z,22.40
2017-08-10T18:45:53.838Z,22.30
2017-08-10T18:48:21.392Z,22.20
2017-08-10T18:50:48.939Z,22.10
2017-08-10T18:53:16.487Z,22.20
2017-08-10T18:55:44.078Z,22.20
2017-08-10T18:58:11.631Z,21.70
2017-08-10T19:00:39.207Z,21.80
2017-08-10T19:03:06.754Z,21.70
2017-08-10T19:05:34.332Z,21.80
2017-08-10T19:08:01.885Z,22.00
2017-08-10T19:10:29.426Z,22.10
2017-08-10T19:12:56.987Z,22.20
2017-08-10T19:15:24.515Z,22.30
2017-08-10T19:17:52.068Z,22.30
2017-08-10T19:20:19.651Z,22.30
2017-08-10T19:22:47.204Z,22.30
2017-08-10T19:25:14.759Z,22.50
2017-08-10T19:27:42.308Z,22.40
2017-08-10T19:30:09.847Z,22.50
2017-08-10T19:32:38.174Z,22.50
2017-08-10T19:35:05.705Z,22.40
2017-08-10T19:37:33.290Z,22.50
2017-08-10T19:40:00.849Z,22.50
2017-08-10T19:42:28.414Z,22.40
2017-08-10T19:44:55.961Z,22.30
2017-08-10T19:47:23.535Z,22.40
2017-08-10T19:49:51.116Z,22.40
2017-08-10T19:52:18.671Z,22.40
2017-08-10T19:54:46.212Z,22.10
2017-08-10T19:57:13.726Z,22.20
2017-08-10T19:59:42.063Z,22.40
2017-08-10T20:02:09.582Z,22.30
2017-08-10T20:04:37.186Z,22.30
2017-08-10T20:07:04.699Z,22.20
2017-08-10T20:09:32.230Z,22.40
2017-08-10T20:11:59.766Z,22.30
2017-08-10T20:14:27.422Z,22.20
2017-08-10T20:16:54.946Z,22.20
2017-08-10T20:19:22.615Z,22.20
2017-08-10T20:21:50.150Z,22.20
2017-08-10T20:24:17.744Z,21.90
2017-08-10T20:26:45.263Z,21.90
2017-08-10T20:29:12.852Z,21.80
2017-08-10T20:31:40.358Z,21.90
2017-08-10T20:34:07.912Z,21.80
2017-08-10T20:36:35.459Z,21.90
2017-08-10T20:39:03.027Z,21.80
2017-08-10T20:41:30.555Z,21.80
2017-08-10T20:43:58.247Z,21.70
2017-08-10T20:46:25.815Z,21.70
2017-08-10T20:48:53.338Z,21.60
2017-08-10T20:51:20.898Z,21.60
2017-08-10T20:53:48.478Z,21.50
2017-08-10T20:56:16.001Z,21.50
2017-08-10T20:58:43.536Z,21.60
2017-08-10T21:01:11.092Z,21.50
2017-08-10T21:03:38.623Z,21.60
2017-08-10T21:06:06.148Z,21.50
2017-08-10T21:08:33.706Z,21.50
2017-08-10T21:11:01.223Z,21.50
2017-08-10T21:13:28.794Z,21.50
2017-08-10T21:15:56.297Z,21.50
2017-08-10T21:18:23.870Z,21.50
2017-08-10T21:20:51.379Z,21.60
2017-08-10T21:23:19.713Z,21.40
2017-08-10T21:25:47.278Z,21.40
2017-08-10T21:28:14.805Z,21.50
2017-08-10T21:30:42.448Z,21.60
2017-08-10T21:33:10.753Z,21.60
2017-08-10T21:35:38.258Z,21.60
2017-08-10T21:38:05.839Z,21.60
2017-08-10T21:40:34.126Z,21.60
2017-08-10T21:43:02.447Z,21.60
2017-08-10T21:45:29.966Z,21.60
2017-08-10T21:47:58.289Z,21.70
2017-08-10T21:50:25.809Z,21.70
2017-08-10T21:52:53.344Z,21.60
2017-08-10T21:55:20.938Z,21.50
2017-08-10T21:57:48.481Z,21.50
2017-08-10T22:00:16.048Z,21.60
2017-08-10T22:02:44.335Z,21.50
2017-08-10T22:05:11.902Z,21.40
2017-08-10T22:07:39.447Z,21.60
2017-08-10T22:10:07.786Z,21.60
2017-08-10T22:12:35.328Z,21.60
2017-08-10T22:15:02.919Z,21.60
2017-08-10T22:17:30.432Z,21.70
2017-08-10T22:19:57.992Z,21.60
2017-08-10T22:22:25.512Z,21.60
2017-08-10T22:24:53.814Z,21.50
2017-08-10T22:27:21.331Z,21.50
2017-08-10T22:29:49.663Z,21.60
2017-08-10T22:32:17.185Z,21.50
2017-08-10T22:34:45.476Z,21.60
2017-08-10T22:37:13.750Z,21.70
2017-08-10T22:39:42.056Z,21.60
2017-08-10T22:42:09.591Z,21.60
2017-08-10T22:44:37.203Z,21.50
2017-08-10T22:47:04.746Z,21.50
2017-08-10T22:49:32.310Z,21.60
2017-08-10T22:51:59.903Z,21.50
2017-08-10T22:54:27.469Z,21.20
2017-08-10T22:56:55.781Z,21.30
2017-08-10T22:59:23.371Z,21.20
2017-08-10T23:01:50.897Z,21.20
2017-08-10T23:04:18.454Z,21.30
2017-08-10T23:06:45.960Z,21.20
2017-08-10T23:09:13.526Z,21.30
2017-08-10T23:11:41.035Z,21.40
2017-08-10T23:14:08.598Z,21.40
2017-08-10T23:16:36.098Z,21.40
2017-08-10T23:19:03.690Z,21.40
2017-08-10T23:21:31.237Z,21.40
2017-08-10T23:23:58.775Z,21.40
2017-08-10T23:26:26.279Z,21.50
2017-08-10T23:28:54.582Z,21.50
2017-08-10T23:31:22.139Z,21.50
2017-08-10T23:33:49.678Z,21.60
2017-08-10T23:36:17.954Z,21.70
2017-08-10T23:38:46.234Z,21.60
2017-08-10T23:41:14.523Z,21.70
2017-08-10T23:43:42.099Z,21.60
2017-08-10T23:46:09.654Z,21.70
2017-08-10T23:48:37.201Z,21.60
2017-08-10T23:51:04.748Z,21.60
2017-08-10T23:53:33.051Z,21.70
2017-08-10T23:56:00.569Z,21.60
2017-08-10T23:58:28.258Z,21.70
